createdAt,value
2023-02-16T00:08:39.608Z,134.70
2023-02-16T00:20:40.060Z,130.10
2023-02-16T00:32:40.503Z,124.50
2023-02-16T00:44:40.958Z,132.70
2023-02-16T00:56:41.415Z,122.60
2023-02-16T01:08:41.890Z,140.90
2023-02-16T01:20:42.352Z,103.40
2023-02-16T01:32:42.803Z,120.60
2023-02-16T01:44:43.247Z,105.80
2023-02-16T01:56:43.652Z,101.30
2023-02-16T02:08:44.154Z,93.90
2023-02-16T02:20:44.579Z,93.30
2023-02-16T02:32:45.042Z,97.90
2023-02-16T02:44:45.515Z,90.20
2023-02-16T02:56:45.999Z,93.30
2023-02-16T03:08:46.396Z,88.60
2023-02-16T03:20:46.843Z,94.60
2023-02-16T03:32:47.267Z,94.20
2023-02-16T03:44:47.780Z,88.40
2023-02-16T03:56:48.226Z,86.50
2023-02-16T04:08:48.643Z,78.10
2023-02-16T04:20:49.141Z,81.30
2023-02-16T04:32:49.540Z,89.70
2023-02-16T04:44:50.027Z,81.40
2023-02-16T04:56:50.464Z,90.50
2023-02-16T05:08:50.902Z,87.20
2023-02-16T05:20:51.360Z,84.90
2023-02-16T05:32:51.819Z,80.80
2023-02-16T05:44:52.284Z,91.80
2023-02-16T05:56:52.767Z,79.00
2023-02-16T06:08:53.181Z,75.60
2023-02-16T06:20:53.608Z,124.70
2023-02-16T06:32:54.056Z,112.90
2023-02-16T06:44:54.536Z,116.70
2023-02-16T06:56:54.994Z,126.00
2023-02-16T07:08:55.404Z,116.40
2023-02-16T07:20:55.886Z,131.90
2023-02-16T07:32:56.330Z,148.20
2023-02-16T07:44:56.752Z,132.70
2023-02-16T07:56:57.187Z,139.10
2023-02-16T08:08:57.709Z,140.30
2023-02-16T08:21:04.163Z,145.50
2023-02-16T08:32:58.580Z,145.00
2023-02-16T08:44:59.151Z,118.10
2023-02-16T08:56:59.520Z,72.70
2023-02-16T09:08:59.911Z,57.30
2023-02-16T09:21:00.381Z,40.70
2023-02-16T09:33:00.846Z,37.60
2023-02-16T09:45:01.296Z,37.60
2023-02-16T09:57:01.783Z,37.00
2023-02-16T10:09:02.221Z,45.30
2023-02-16T10:21:02.858Z,36.50
2023-02-16T10:33:03.114Z,34.20
2023-02-16T10:45:03.538Z,36.20
2023-02-16T10:57:04.063Z,39.80
2023-02-16T11:09:04.516Z,35.10
2023-02-16T11:21:05.135Z,32.60
2023-02-16T11:33:05.415Z,30.30
2023-02-16T11:45:05.857Z,36.80
2023-02-16T11:57:06.260Z,32.50
2023-02-16T12:09:06.743Z,33.40
2023-02-16T12:21:07.180Z,40.20
2023-02-16T12:33:07.681Z,40.90
2023-02-16T12:45:08.128Z,38.90
2023-02-16T12:57:08.567Z,37.20
2023-02-16T13:09:09.040Z,42.00
2023-02-16T13:21:09.501Z,44.20
2023-02-16T13:33:09.929Z,53.60
2023-02-16T13:45:10.435Z,62.10
2023-02-16T13:57:10.872Z,60.30
2023-02-16T14:09:11.325Z,57.70
2023-02-16T14:21:11.738Z,59.30
2023-02-16T14:33:12.197Z,57.60
2023-02-16T14:45:12.685Z,60.40
2023-02-16T14:57:13.159Z,64.70
2023-02-16T15:09:13.613Z,70.80
2023-02-16T15:21:14.055Z,65.10
2023-02-16T15:33:14.459Z,57.80
2023-02-16T15:45:14.937Z,51.80
2023-02-16T15:57:15.397Z,48.80
2023-02-16T16:09:15.859Z,52.90
2023-02-16T16:21:16.303Z,62.10
2023-02-16T16:33:16.787Z,49.20
2023-02-16T16:45:17.196Z,52.60
2023-02-16T16:57:17.648Z,66.10
2023-02-16T17:09:18.104Z,54.70
2023-02-16T17:21:18.583Z,54.10
2023-02-16T17:33:18.994Z,59.30
2023-02-16T17:45:19.482Z,63.30
2023-02-16T17:57:19.918Z,66.40
2023-02-16T18:09:20.375Z,73.00
2023-02-16T18:21:20.784Z,76.30
2023-02-16T18:33:21.290Z,91.60
2023-02-16T18:45:21.766Z,81.00
2023-02-16T18:57:22.204Z,102.00
2023-02-16T19:09:22.653Z,118.80
2023-02-16T19:21:23.113Z,119.10
2023-02-16T19:33:23.516Z,157.20
2023-02-16T19:45:24.009Z,132.80
2023-02-16T19:57:24.472Z,109.90
2023-02-16T20:09:24.938Z,83.40
2023-02-16T20:21:25.357Z,78.20
2023-02-16T20:33:25.792Z,78.20
2023-02-16T20:45:26.260Z,88.00
2023-02-16T20:57:27.492Z,83.00
2023-02-16T21:09:27.173Z,86.10
2023-02-16T21:21:27.613Z,124.40
2023-02-16T21:33:28.061Z,137.40
2023-02-16T21:45:28.546Z,155.80
2023-02-16T21:57:28.976Z,132.70
2023-02-16T22:09:29.428Z,129.10
2023-02-16T22:21:29.895Z,91.60
2023-02-16T22:33:30.318Z,81.90
2023-02-16T22:45:30.919Z,95.90
2023-02-16T22:57:31.239Z,99.40
2023-02-16T23:09:31.663Z,87.30
2023-02-16T23:21:32.140Z,95.70
2023-02-16T23:33:32.590Z,80.10
2023-02-16T23:45:33.056Z,86.50
2023-02-16T23:57:33.442Z,68.90
